METAR Data
IDs: Format: Raw Decoded Include TAF

Data at: 1144 UTC 23 Jun 2021

Region: TOP
KATL 231052Z 00000KT 10SM FEW200 FEW250 17/14 A3008 RMK AO2 SLP179 T01670144

KBOS 231054Z 30009KT 10SM FEW065 FEW200 SCT250 15/08 A3004 RMK AO2 SLP171 T01500083 $

KBWI 231054Z 31004KT 10SM FEW050 FEW110 FEW250 13/09 A3016 RMK AO2 SLP212 T01330089

KCLE 231051Z 20006KT 10SM SCT090 SCT250 12/06 A3012 RMK AO2 SLP215 T01220056 $

KCLT 231052Z 04006KT 10SM FEW017 SCT070 19/17 A3012 RMK AO2 SLP193 T01890167

KCVG 231052Z 16004KT 10SM SCT300 12/08 A3016 RMK AO2 SLP208 T01170083

KDCA 231052Z 33004KT 10SM FEW140 FEW250 15/09 A3017 RMK AO2 SLP217 T01500089

KDEN 231053Z 23011KT 10SM FEW100 BKN200 19/07 A2993 RMK AO2 SLP040 T01890067

KDFW 231053Z 16009KT 10SM FEW013 FEW031 24/22 A2994 RMK AO2 SLP128 T02440217

KDTW 231053Z 20003KT 10SM SCT060 BKN080 BKN200 12/09 A3012 RMK AO2 SLP197 T01170089

KEWR 231051Z 31004KT 10SM FEW250 15/09 A3012 RMK AO2 SLP198 T01500089 $

KFLL 231053Z 11005KT 10SM FEW025 SCT090 BKN150 BKN250 26/23 A3003 RMK AO2 SLP170 T02560228

KIAD 231052Z 00000KT 10SM FEW080 FEW250 13/09 A3017 RMK AO2 SLP215 T01280089 $

KIAH 231053Z 00000KT 10SM FEW016 FEW100 25/23 A2995 RMK AO2 SLP140 T02500233

KJFK 231051Z 32009KT 10SM FEW150 FEW250 15/08 A3012 RMK AO2 SLP199 T01500083

KLAS 231101Z 22007KT 10SM FEW080 BKN110 OVC160 32/M01 A2984 RMK AO2 VIRGA ALQDS T03221011

KLAX 231056Z 15005KT 10SM FEW007 BKN009 16/14 A2990 RMK AO2 T01610144

KLGA 231051Z 30010KT 10SM FEW250 15/08 A3010 RMK AO2 SLP194 T01500078

KMCO 231053Z 00000KT 10SM FEW120 BKN180 BKN250 23/22 A3007 RMK AO2 SLP180 T02280222

KMDW 231053Z COR 20011KT 10SM SCT055 BKN060 BKN110 19/08 A3002 RMK AO2 SLP158 T01890083

KMEM 231054Z 09003KT 10SM FEW250 17/11 A3007 RMK AO2 SLP179 T01670111 $

KMIA 231053Z 05003KT 10SM FEW180 BKN250 26/21 A3006 RMK AO2 SLP178 T02560211 $

KMSP 231053Z 14006KT 10SM FEW200 14/11 A2984 RMK AO2 SLP102 T01440106

KORD 231051Z 20007KT 10SM BKN038 OVC055 19/11 A3001 RMK AO2 SLP157 T01890106

KPDX 231053Z 32007KT 10SM FEW200 15/12 A2990 RMK AO2 SLP121 T01500117

KPHL 231054Z 33007KT 10SM FEW110 FEW250 14/09 A3015 RMK AO2 SLP210 T01390089

KPHX 231051Z 07005KT 10SM FEW080 SCT110 SCT130 BKN210 OVC240 32/12 A2981 RMK AO2 SLP070 T03220122

KPIT 231051Z 00000KT 10SM FEW065 SCT250 09/06 A3017 RMK AO2 SLP222 T00940056

KSAN 231117Z 30005KT 10SM SCT016 BKN110 19/16 A2991 RMK AO2 T01940161

KSEA 231053Z 20009KT 10SM OVC005 13/12 A2990 RMK AO2 SLP128 T01330117

KSFO 231056Z 25008KT 10SM SCT020 BKN027 18/12 A2989 RMK AO2 SLP122 T01780122 $

KSLC 231054Z 20008KT 10SM FEW110 SCT250 26/M04 A2991 RMK AO2 SLP057 T02611044

KSTL 231051Z 19006KT 10SM FEW120 FEW250 18/09 A3005 RMK AO2 SLP168 T01830094

KTPA 231053Z 00000KT 9SM SCT180 BKN230 26/23 A3007 RMK AO2 SLP182 T02610233